createdAt,value
2022-11-10T00:01:07.559Z,98956.78
2022-11-10T00:04:10.533Z,98961.16
2022-11-10T00:07:13.332Z,98967.72
2022-11-10T00:10:16.726Z,98961.31
2022-11-10T00:13:19.718Z,98959.69
2022-11-10T00:16:41.673Z,98972.13
2022-11-10T00:19:44.681Z,98970.50
2022-11-10T00:22:47.368Z,98970.84
2022-11-10T00:25:50.270Z,98975.34
2022-11-10T00:28:52.988Z,98972.44
2022-11-10T00:31:57.160Z,98971.66
2022-11-10T00:35:00.035Z,98977.44
2022-11-10T00:38:02.819Z,98980.66
2022-11-10T00:41:05.882Z,98987.41
2022-11-10T00:44:08.449Z,98995.00
2022-11-10T00:47:12.770Z,98995.50
2022-11-10T00:50:16.039Z,98995.16
2022-11-10T00:53:18.846Z,99004.03
2022-11-10T00:56:22.561Z,99005.34
2022-11-10T00:59:25.262Z,99014.69
2022-11-10T01:02:29.409Z,99017.09
2022-11-10T01:05:32.614Z,99022.25
2022-11-10T01:08:35.520Z,99021.44
2022-11-10T01:11:38.229Z,99025.34
2022-11-10T01:14:40.871Z,99024.06
2022-11-10T01:17:45.112Z,99025.06
2022-11-10T01:20:51.346Z,99032.44
2022-11-10T01:23:54.338Z,99035.66
2022-11-10T01:26:57.291Z,99040.03
2022-11-10T01:29:59.917Z,99049.03
2022-11-10T01:33:04.094Z,99050.16
2022-11-10T01:36:08.250Z,99045.31
2022-11-10T01:39:11.094Z,99043.56
2022-11-10T01:42:14.061Z,99048.72
2022-11-10T01:45:43.402Z,99055.13
2022-11-10T01:48:49.691Z,99060.72
2022-11-10T01:51:55.849Z,99061.50
2022-11-10T01:54:58.535Z,99063.94
2022-11-10T01:58:01.284Z,99062.41
2022-11-10T02:01:03.974Z,99066.38
2022-11-10T02:04:10.165Z,99065.22
2022-11-10T02:07:13.102Z,99063.38
2022-11-10T02:10:17.033Z,99057.22
2022-11-10T02:13:19.887Z,99060.69
2022-11-10T02:16:22.935Z,99070.00
2022-11-10T02:19:27.914Z,99070.25
2022-11-10T02:22:32.231Z,99080.22
2022-11-10T02:25:36.129Z,99088.00
2022-11-10T02:28:39.355Z,99087.66
2022-11-10T02:31:42.400Z,99087.78
2022-11-10T02:34:45.420Z,99098.50
2022-11-10T02:37:49.481Z,99102.00
2022-11-10T02:40:52.162Z,99111.75
2022-11-10T02:43:55.489Z,99109.56
2022-11-10T02:46:58.070Z,99114.44
2022-11-10T02:50:00.635Z,99120.53
2022-11-10T02:53:04.813Z,99115.28
2022-11-10T02:56:08.109Z,99127.84
2022-11-10T02:59:10.734Z,99138.88
2022-11-10T03:02:13.996Z,99141.41
2022-11-10T03:05:16.729Z,99148.06
2022-11-10T03:08:20.715Z,99146.03
2022-11-10T03:11:25.798Z,99151.09
2022-11-10T03:14:31.983Z,99149.69
2022-11-10T03:17:34.527Z,99155.41
2022-11-10T03:20:37.111Z,99157.66
2022-11-10T03:23:41.215Z,99151.38
2022-11-10T03:26:43.824Z,99162.03
2022-11-10T03:29:46.679Z,99173.66
2022-11-10T03:32:49.362Z,99167.94
2022-11-10T03:35:52.034Z,99183.72
2022-11-10T03:38:56.969Z,99178.06
2022-11-10T03:41:59.852Z,99186.06
2022-11-10T03:45:02.461Z,99186.72
2022-11-10T03:48:05.295Z,99187.63
2022-11-10T03:51:08.036Z,99187.63
2022-11-10T03:54:11.999Z,99193.16
2022-11-10T03:57:14.681Z,99196.28
2022-11-10T04:00:17.594Z,99207.91
2022-11-10T04:03:20.672Z,99203.41
2022-11-10T04:06:41.129Z,99212.94
2022-11-10T04:09:45.264Z,99211.13
2022-11-10T04:13:05.644Z,99212.84
2022-11-10T04:16:08.496Z,99214.84
2022-11-10T04:19:11.150Z,99225.88
2022-11-10T04:22:34.058Z,99235.69
2022-11-10T04:25:58.010Z,99233.34
2022-11-10T04:29:02.236Z,99241.19
2022-11-10T04:32:05.200Z,99241.38
2022-11-10T04:35:08.449Z,99244.53
2022-11-10T04:38:11.873Z,99257.03
2022-11-10T04:41:16.580Z,99254.25
2022-11-10T04:44:19.182Z,99250.84
2022-11-10T04:47:22.235Z,99259.38
2022-11-10T04:50:24.800Z,99271.91
2022-11-10T04:53:27.454Z,99267.75
2022-11-10T04:56:31.727Z,99277.97
2022-11-10T04:59:34.337Z,99292.81
2022-11-10T05:02:39.789Z,99283.69
2022-11-10T05:05:43.084Z,99276.72
2022-11-10T05:08:46.158Z,99287.13
2022-11-10T05:11:57.925Z,99295.50
2022-11-10T05:15:00.549Z,99295.22
2022-11-10T05:18:03.144Z,99304.16
2022-11-10T05:21:05.899Z,99303.97
2022-11-10T05:24:08.716Z,99310.41
2022-11-10T05:27:12.725Z,99313.59
2022-11-10T05:30:15.794Z,99312.66
2022-11-10T05:33:18.527Z,99323.63
2022-11-10T05:36:21.392Z,99313.59
2022-11-10T05:39:24.074Z,99304.19
2022-11-10T05:42:28.213Z,99327.34
2022-11-10T05:45:30.925Z,99319.44
2022-11-10T05:48:33.592Z,99326.28
2022-11-10T05:51:36.342Z,99319.31
2022-11-10T05:54:39.024Z,99319.59
2022-11-10T05:57:45.093Z,99327.09
2022-11-10T06:00:47.770Z,99320.53
2022-11-10T06:03:50.435Z,99334.91
2022-11-10T06:06:53.136Z,99345.50
2022-11-10T06:09:55.766Z,99348.47
2022-11-10T06:13:00.035Z,99360.19
2022-11-10T06:16:02.617Z,99367.56
2022-11-10T06:19:05.335Z,99369.25
2022-11-10T06:22:08.219Z,99383.47
2022-11-10T06:25:12.027Z,99392.53
2022-11-10T06:28:16.064Z,99390.09
2022-11-10T06:31:18.681Z,99395.25
2022-11-10T06:34:21.442Z,99402.31
2022-11-10T06:37:24.466Z,99406.38
2022-11-10T06:40:27.256Z,99422.00
2022-11-10T06:43:31.221Z,99424.25
2022-11-10T06:46:37.065Z,99441.56
2022-11-10T06:49:45.021Z,99451.25
2022-11-10T06:52:55.088Z,99454.78
2022-11-10T06:55:57.899Z,99469.16
2022-11-10T06:59:02.331Z,99473.66
2022-11-10T07:02:05.061Z,99487.78
2022-11-10T07:05:08.154Z,99490.66
2022-11-10T07:08:13.640Z,99492.31
2022-11-10T07:11:16.449Z,99489.31
2022-11-10T07:14:20.604Z,99490.81
2022-11-10T07:17:24.260Z,99512.50
2022-11-10T07:20:28.364Z,99514.84
2022-11-10T07:23:31.027Z,99525.19
2022-11-10T07:26:34.926Z,99519.66
2022-11-10T07:29:39.826Z,99525.19
2022-11-10T07:32:42.427Z,99530.94
2022-11-10T07:35:45.450Z,99541.50
2022-11-10T07:38:48.211Z,99540.00
2022-11-10T07:41:52.673Z,99535.50
2022-11-10T07:44:57.125Z,99541.91
2022-11-10T07:48:00.776Z,99546.81
2022-11-10T07:51:03.330Z,99546.47
2022-11-10T07:54:06.044Z,99555.22
2022-11-10T07:57:08.738Z,99554.78
2022-11-10T08:00:20.400Z,99558.88
2022-11-10T08:03:23.706Z,99559.38
2022-11-10T08:06:28.383Z,99568.06
2022-11-10T08:09:32.127Z,99577.03
2022-11-10T08:12:34.767Z,99573.66
2022-11-10T08:15:39.167Z,99580.88
2022-11-10T08:18:41.848Z,99580.59
2022-11-10T08:21:44.654Z,99583.75
2022-11-10T08:24:47.240Z,99586.03
2022-11-10T08:27:50.017Z,99593.47
2022-11-10T08:30:54.425Z,99591.09
2022-11-10T08:33:57.631Z,99586.50
2022-11-10T08:37:00.325Z,99597.38
2022-11-10T08:40:03.191Z,99601.03
2022-11-10T08:43:07.633Z,99602.25
2022-11-10T08:46:11.690Z,99596.09
2022-11-10T08:49:14.303Z,99600.41
2022-11-10T08:52:16.922Z,99611.47
2022-11-10T08:55:20.605Z,99609.41
2022-11-10T08:58:23.816Z,99619.69
2022-11-10T09:01:27.811Z,99619.44
2022-11-10T09:04:30.631Z,99623.03
2022-11-10T09:07:34.857Z,99620.47
2022-11-10T09:10:38.655Z,99625.53
2022-11-10T09:13:41.232Z,99641.06
2022-11-10T09:16:45.248Z,99640.31
2022-11-10T09:19:48.030Z,99643.34
2022-11-10T09:22:50.629Z,99644.66
2022-11-10T09:25:55.245Z,99641.75
2022-11-10T09:28:57.835Z,99645.97
2022-11-10T09:32:01.870Z,99648.44
2022-11-10T09:35:05.848Z,99649.47
2022-11-10T09:38:08.719Z,99661.00
2022-11-10T09:41:13.313Z,99665.03
2022-11-10T09:44:18.400Z,99676.69
2022-11-10T09:47:57.442Z,99673.78
2022-11-10T09:50:51.953Z,99684.47
2022-11-10T09:53:57.655Z,99692.94
2022-11-10T09:57:02.885Z,99689.38
2022-11-10T10:00:06.358Z,99695.59
2022-11-10T10:03:16.109Z,99695.94
2022-11-10T10:06:20.313Z,99699.97
2022-11-10T10:09:29.543Z,99695.22
2022-11-10T10:12:47.005Z,99697.16
2022-11-10T10:16:00.274Z,99695.50
2022-11-10T10:19:11.047Z,99694.88
2022-11-10T10:22:45.633Z,99703.69
2022-11-10T10:25:48.371Z,99691.38
2022-11-10T10:28:52.095Z,99692.88
2022-11-10T10:31:55.152Z,99693.84
2022-11-10T10:34:59.457Z,99692.25
2022-11-10T10:38:03.337Z,99695.13
2022-11-10T10:41:13.554Z,99695.16
2022-11-10T10:44:17.819Z,99707.97
2022-11-10T10:47:20.440Z,99697.63
2022-11-10T10:50:27.882Z,99694.38
2022-11-10T10:53:30.630Z,99699.53
2022-11-10T10:56:34.340Z,99700.22
2022-11-10T10:59:36.902Z,99695.72
2022-11-10T11:02:39.675Z,99688.91
2022-11-10T11:05:43.696Z,99686.16
2022-11-10T11:08:59.505Z,99688.59
2022-11-10T11:12:05.492Z,99691.34
2022-11-10T11:15:20.660Z,99693.44
2022-11-10T11:18:24.033Z,99693.94
2022-11-10T11:21:29.492Z,99687.91
2022-11-10T11:24:37.211Z,99686.78
2022-11-10T11:27:46.034Z,99685.66
2022-11-10T11:30:58.004Z,99687.09
2022-11-10T11:34:03.397Z,99692.03
2022-11-10T11:37:19.274Z,99690.81
2022-11-10T11:40:28.687Z,99696.78
2022-11-10T11:43:45.763Z,99685.09
2022-11-10T11:46:54.890Z,99690.75
2022-11-10T11:50:09.465Z,99686.69
2022-11-10T11:53:25.843Z,99695.59
2022-11-10T11:56:32.270Z,99693.09
2022-11-10T11:59:46.961Z,99697.22
2022-11-10T12:03:04.065Z,99694.91
2022-11-10T12:06:19.766Z,99686.63
2022-11-10T12:09:31.274Z,99680.34
2022-11-10T12:12:56.911Z,99674.69
2022-11-10T12:16:02.665Z,99673.44
2022-11-10T12:19:14.082Z,99671.72
2022-11-10T12:22:24.295Z,99668.19
2022-11-10T12:25:32.502Z,99669.06
2022-11-10T12:28:39.043Z,99688.88
2022-11-10T12:31:43.931Z,99685.09
2022-11-10T12:34:49.509Z,99672.34
2022-11-10T12:37:54.976Z,99677.19
2022-11-10T12:41:04.495Z,99673.13
2022-11-10T12:44:14.362Z,99671.75
2022-11-10T12:47:20.211Z,99670.06
2022-11-10T12:50:50.026Z,99676.31
2022-11-10T12:53:52.979Z,99671.19
2022-11-10T12:56:59.726Z,99667.72
2022-11-10T13:00:07.100Z,99673.25
2022-11-10T13:03:15.727Z,99669.94
2022-11-10T13:06:27.476Z,99670.22
2022-11-10T13:09:32.148Z,99667.09
2022-11-10T13:12:36.612Z,99673.34
2022-11-10T13:15:48.778Z,99678.00
2022-11-10T13:18:54.904Z,99687.97
2022-11-10T13:22:13.491Z,99690.09
2022-11-10T13:26:02.000Z,99694.13
2022-11-10T13:29:20.919Z,99693.06
2022-11-10T13:32:28.961Z,99692.00
2022-11-10T13:35:55.417Z,99684.91
2022-11-10T13:38:58.473Z,99679.97
2022-11-10T13:42:04.052Z,99680.06
2022-11-10T13:45:30.514Z,99678.97
2022-11-10T13:48:50.167Z,99674.88
2022-11-10T13:52:06.549Z,99682.53
2022-11-10T13:55:21.419Z,99684.88
2022-11-10T13:58:27.865Z,99694.13
2022-11-10T14:01:32.138Z,99699.69
2022-11-10T14:04:40.767Z,99692.34
2022-11-10T14:07:45.833Z,99688.22
2022-11-10T14:10:50.919Z,99690.63
2022-11-10T14:14:00.258Z,99691.38
2022-11-10T14:17:04.577Z,99700.13
2022-11-10T14:20:22.318Z,99694.75
2022-11-10T14:23:29.199Z,99700.16
2022-11-10T14:26:36.048Z,99691.97
2022-11-10T14:29:39.988Z,99697.41
2022-11-10T14:32:44.011Z,99699.59
2022-11-10T14:35:49.706Z,99699.34
2022-11-10T14:38:53.163Z,99698.56
2022-11-10T14:41:56.024Z,99706.53
2022-11-10T14:45:09.860Z,99702.69
2022-11-10T14:48:19.098Z,99702.19
2022-11-10T14:51:21.883Z,99714.75
2022-11-10T14:54:26.649Z,99710.91
2022-11-10T14:57:29.317Z,99717.22
2022-11-10T15:00:36.845Z,99727.91
2022-11-10T15:03:42.368Z,99728.38
2022-11-10T15:06:47.170Z,99732.06
2022-11-10T15:10:05.588Z,99729.28
2022-11-10T15:13:20.052Z,99733.09
2022-11-10T15:16:27.055Z,99739.06
2022-11-10T15:19:33.429Z,99747.56
2022-11-10T15:22:37.415Z,99753.47
2022-11-10T15:25:41.683Z,99753.53
2022-11-10T15:28:44.635Z,99750.03
2022-11-10T15:31:47.424Z,99749.09
2022-11-10T15:34:53.036Z,99760.94
2022-11-10T15:37:59.989Z,99765.63
2022-11-10T15:41:12.073Z,99766.75
2022-11-10T15:44:19.833Z,99759.88
2022-11-10T15:47:22.554Z,99772.38
2022-11-10T15:50:26.580Z,99770.56
2022-11-10T15:53:31.996Z,99773.78
2022-11-10T15:56:34.781Z,99774.69
2022-11-10T15:59:37.344Z,99785.63
2022-11-10T16:02:40.489Z,99789.13
2022-11-10T16:05:44.599Z,99799.03
2022-11-10T16:08:48.130Z,99794.03
2022-11-10T16:11:50.628Z,99797.03
2022-11-10T16:14:55.175Z,99795.88
2022-11-10T16:17:58.175Z,99798.09
2022-11-10T16:21:02.105Z,99801.84
2022-11-10T16:24:05.152Z,99809.59
2022-11-10T16:27:09.031Z,99805.31
2022-11-10T16:30:14.247Z,99813.94
2022-11-10T16:33:18.194Z,99812.56
2022-11-10T16:36:25.063Z,99815.78
2022-11-10T16:39:27.697Z,99823.78
2022-11-10T16:42:30.441Z,99829.31
2022-11-10T16:45:34.097Z,99827.69
2022-11-10T16:48:37.103Z,99834.78
2022-11-10T16:51:48.356Z,99849.88
2022-11-10T16:54:51.648Z,99847.63
2022-11-10T16:57:54.330Z,99856.88
2022-11-10T17:00:59.555Z,99864.59
2022-11-10T17:04:04.119Z,99869.78
2022-11-10T17:07:11.731Z,99868.25
2022-11-10T17:10:15.850Z,99873.44
2022-11-10T17:13:18.891Z,99867.97
2022-11-10T17:16:26.509Z,99869.41
2022-11-10T17:19:29.181Z,99867.28
2022-11-10T17:22:35.176Z,99853.63
2022-11-10T17:25:37.973Z,99862.13
2022-11-10T17:28:40.616Z,99859.69
2022-11-10T17:31:43.227Z,99858.81
2022-11-10T17:34:45.879Z,99862.13
2022-11-10T17:37:51.492Z,99871.41
2022-11-10T17:40:54.485Z,99875.59
2022-11-10T17:43:57.065Z,99876.41
2022-11-10T17:47:00.327Z,99889.28
2022-11-10T17:50:02.940Z,99887.47
2022-11-10T17:53:14.144Z,99904.97
2022-11-10T17:56:17.001Z,99894.13
2022-11-10T17:59:19.658Z,99887.53
2022-11-10T18:02:22.299Z,99894.66
2022-11-10T18:05:25.060Z,99894.63
2022-11-10T18:08:29.235Z,99898.25
2022-11-10T18:11:31.870Z,99889.59
2022-11-10T18:14:34.526Z,99890.97
2022-11-10T18:17:37.115Z,99905.47
2022-11-10T18:20:40.207Z,99905.50
2022-11-10T18:23:45.294Z,99916.13
2022-11-10T18:26:48.176Z,99911.78
2022-11-10T18:29:51.496Z,99917.50
2022-11-10T18:32:54.289Z,99916.19
2022-11-10T18:35:59.760Z,99919.97
2022-11-10T18:39:04.074Z,99927.88
2022-11-10T18:42:06.767Z,99933.63
2022-11-10T18:45:11.096Z,99926.28
2022-11-10T18:48:13.827Z,99918.94
2022-11-10T18:51:17.108Z,99920.59
2022-11-10T18:54:21.551Z,99923.88
2022-11-10T18:57:24.253Z,99931.50
2022-11-10T19:00:26.905Z,99929.06
2022-11-10T19:03:29.486Z,99928.78
2022-11-10T19:06:32.258Z,99926.59
2022-11-10T19:09:36.383Z,99907.00
2022-11-10T19:12:39.371Z,99907.81
2022-11-10T19:15:42.059Z,99918.72
2022-11-10T19:18:44.795Z,99922.81
2022-11-10T19:21:47.402Z,99917.38
2022-11-10T19:25:07.711Z,99917.38
2022-11-10T19:28:11.439Z,99919.03
2022-11-10T19:31:16.481Z,99929.91
2022-11-10T19:34:19.543Z,99928.00
2022-11-10T19:37:22.225Z,99932.06
2022-11-10T19:40:26.225Z,99933.72
2022-11-10T19:43:30.931Z,99937.25
2022-11-10T19:46:36.937Z,99941.63
2022-11-10T19:49:39.638Z,99949.22
2022-11-10T19:52:42.223Z,99938.34
2022-11-10T19:55:47.056Z,99932.34
2022-11-10T19:58:50.212Z,99919.03
2022-11-10T20:01:52.903Z,99921.19
2022-11-10T20:05:13.735Z,99923.94
2022-11-10T20:08:16.644Z,99939.97
2022-11-10T20:11:22.227Z,99942.94
2022-11-10T20:14:25.235Z,99948.34
2022-11-10T20:17:28.280Z,99954.34
2022-11-10T20:20:31.110Z,99948.88
2022-11-10T20:23:33.972Z,99955.13
2022-11-10T20:26:37.994Z,99962.78
2022-11-10T20:29:40.577Z,99963.59
2022-11-10T20:32:43.138Z,99974.19
2022-11-10T20:35:45.978Z,99976.88
2022-11-10T20:38:48.933Z,99982.34
2022-11-10T20:41:53.260Z,99978.81
2022-11-10T20:44:55.829Z,99982.59
2022-11-10T20:47:59.086Z,99992.09
2022-11-10T20:51:02.202Z,99998.88
2022-11-10T20:54:04.989Z,100004.31
2022-11-10T20:57:08.940Z,99996.41
2022-11-10T21:00:12.334Z,100003.75
2022-11-10T21:03:14.896Z,100015.69
2022-11-10T21:06:17.560Z,100005.38
2022-11-10T21:09:20.734Z,100002.66
2022-11-10T21:12:42.465Z,100007.50
2022-11-10T21:15:48.592Z,99997.47
2022-11-10T21:18:51.277Z,99979.78
2022-11-10T21:21:53.934Z,99965.91
2022-11-10T21:24:56.577Z,99970.53
2022-11-10T21:28:00.696Z,99985.44
2022-11-10T21:31:04.033Z,99977.00
2022-11-10T21:34:06.719Z,99977.81
2022-11-10T21:37:09.400Z,99982.44
2022-11-10T21:40:13.188Z,99989.75
2022-11-10T21:43:17.173Z,100001.66
2022-11-10T21:46:20.254Z,99990.50
2022-11-10T21:49:22.918Z,99985.38
2022-11-10T21:52:25.794Z,99976.44
2022-11-10T21:55:28.706Z,99978.59
2022-11-10T21:58:33.842Z,99984.88
2022-11-10T22:01:36.600Z,99975.88
2022-11-10T22:04:39.349Z,99971.84
2022-11-10T22:07:42.099Z,99974.25
2022-11-10T22:11:02.362Z,99962.81
2022-11-10T22:14:29.577Z,99957.91
2022-11-10T22:17:49.964Z,99961.69
2022-11-10T22:20:52.784Z,99962.22
2022-11-10T22:24:12.887Z,99958.09
2022-11-10T22:27:15.821Z,99953.50
2022-11-10T22:30:19.936Z,99958.69
2022-11-10T22:33:28.655Z,99963.28
2022-11-10T22:36:31.358Z,99968.94
2022-11-10T22:39:52.094Z,99969.44
2022-11-10T22:43:12.411Z,99970.22
2022-11-10T22:46:16.785Z,99961.59
2022-11-10T22:49:20.943Z,99974.63
2022-11-10T22:52:23.861Z,99976.75
2022-11-10T22:55:26.593Z,99971.06
2022-11-10T22:58:29.451Z,99980.00
2022-11-10T23:01:34.115Z,99974.28
2022-11-10T23:04:37.072Z,99971.06
2022-11-10T23:07:39.728Z,99964.84
2022-11-10T23:10:42.618Z,99956.63
2022-11-10T23:13:45.279Z,99952.25
2022-11-10T23:16:49.695Z,99965.00
2022-11-10T23:19:52.418Z,99973.78
2022-11-10T23:22:56.047Z,99984.38
2022-11-10T23:26:00.200Z,99990.19
2022-11-10T23:29:02.914Z,99987.81
2022-11-10T23:32:07.126Z,99993.81
2022-11-10T23:35:10.200Z,99990.16
2022-11-10T23:38:13.268Z,99995.28
2022-11-10T23:41:17.369Z,100000.44
2022-11-10T23:44:20.648Z,100002.56
2022-11-10T23:47:24.613Z,99999.84
2022-11-10T23:50:27.210Z,99994.94
2022-11-10T23:53:30.163Z,99990.03
2022-11-10T23:56:33.521Z,99990.72
2022-11-10T23:59:36.084Z,99998.31
